sensor_id;sensor_type;location;lat;lon;timestamp;temperature;humidity
53310;DHT22;39197;53.200;5.792;2023-08-30T00:00:54;14.60;99.90
53310;DHT22;39197;53.200;5.792;2023-08-30T00:03:20;14.50;99.90
53310;DHT22;39197;53.200;5.792;2023-08-30T00:05:46;14.60;99.90
53310;DHT22;39197;53.200;5.792;2023-08-30T00:08:11;14.50;99.90
53310;DHT22;39197;53.200;5.792;2023-08-30T00:10:39;14.40;99.90
53310;DHT22;39197;53.200;5.792;2023-08-30T00:13:04;14.40;99.90
53310;DHT22;39197;53.200;5.792;2023-08-30T00:15:30;14.30;99.90
53310;DHT22;39197;53.200;5.792;2023-08-30T00:17:56;14.30;99.90
53310;DHT22;39197;53.200;5.792;2023-08-30T00:20:22;14.40;99.90
53310;DHT22;39197;53.200;5.792;2023-08-30T00:22:47;14.30;99.90
53310;DHT22;39197;53.200;5.792;2023-08-30T00:25:16;14.30;99.90
53310;DHT22;39197;53.200;5.792;2023-08-30T00:27:42;14.30;99.90
53310;DHT22;39197;53.200;5.792;2023-08-30T00:30:08;14.20;99.90
53310;DHT22;39197;53.200;5.792;2023-08-30T00:32:35;14.20;99.90
53310;DHT22;39197;53.200;5.792;2023-08-30T00:35:01;14.20;99.90
53310;DHT22;39197;53.200;5.792;2023-08-30T00:37:38;14.20;99.90
53310;DHT22;39197;53.200;5.792;2023-08-30T00:40:28;14.10;99.90
53310;DHT22;39197;53.200;5.792;2023-08-30T00:43:12;14.10;99.90
53310;DHT22;39197;53.200;5.792;2023-08-30T00:45:39;14.10;99.90
53310;DHT22;39197;53.200;5.792;2023-08-30T00:48:06;14.10;99.90
53310;DHT22;39197;53.200;5.792;2023-08-30T00:50:32;14.10;99.90
53310;DHT22;39197;53.200;5.792;2023-08-30T00:53:28;14.10;99.90
53310;DHT22;39197;53.200;5.792;2023-08-30T00:59:27;14.10;99.90
53310;DHT22;39197;53.200;5.792;2023-08-30T01:01:53;14.30;99.90
53310;DHT22;39197;53.200;5.792;2023-08-30T01:04:19;14.10;99.90
53310;DHT22;39197;53.200;5.792;2023-08-30T01:06:45;14.10;99.90
53310;DHT22;39197;53.200;5.792;2023-08-30T01:09:11;14.00;99.90
53310;DHT22;39197;53.200;5.792;2023-08-30T01:11:48;14.00;99.90
53310;DHT22;39197;53.200;5.792;2023-08-30T01:14:20;14.00;99.90
53310;DHT22;39197;53.200;5.792;2023-08-30T01:16:48;14.00;99.90
53310;DHT22;39197;53.200;5.792;2023-08-30T01:25:15;13.90;99.90
53310;DHT22;39197;53.200;5.792;2023-08-30T01:27:43;13.90;99.90
53310;DHT22;39197;53.200;5.792;2023-08-30T01:30:11;13.80;99.90
53310;DHT22;39197;53.200;5.792;2023-08-30T01:32:38;13.80;99.90
53310;DHT22;39197;53.200;5.792;2023-08-30T01:35:06;13.70;99.90
53310;DHT22;39197;53.200;5.792;2023-08-30T01:37:33;13.70;99.90
53310;DHT22;39197;53.200;5.792;2023-08-30T01:40:00;13.60;99.90
53310;DHT22;39197;53.200;5.792;2023-08-30T01:42:27;13.60;99.90
53310;DHT22;39197;53.200;5.792;2023-08-30T01:44:55;13.60;99.90
53310;DHT22;39197;53.200;5.792;2023-08-30T01:47:25;13.60;99.90
53310;DHT22;39197;53.200;5.792;2023-08-30T01:49:53;13.50;99.90
53310;DHT22;39197;53.200;5.792;2023-08-30T01:52:20;13.50;99.90
53310;DHT22;39197;53.200;5.792;2023-08-30T01:54:47;13.40;99.90
53310;DHT22;39197;53.200;5.792;2023-08-30T01:57:13;13.40;99.90
53310;DHT22;39197;53.200;5.792;2023-08-30T01:59:39;13.20;99.90
53310;DHT22;39197;53.200;5.792;2023-08-30T02:02:05;13.20;99.90
53310;DHT22;39197;53.200;5.792;2023-08-30T02:04:30;13.20;99.90
53310;DHT22;39197;53.200;5.792;2023-08-30T02:07:13;13.20;99.90
53310;DHT22;39197;53.200;5.792;2023-08-30T02:09:50;13.10;99.90
53310;DHT22;39197;53.200;5.792;2023-08-30T02:12:22;13.10;99.90
53310;DHT22;39197;53.200;5.792;2023-08-30T02:14:50;13.00;99.90
53310;DHT22;39197;53.200;5.792;2023-08-30T02:17:17;13.50;99.90
53310;DHT22;39197;53.200;5.792;2023-08-30T02:19:44;13.00;99.90
53310;DHT22;39197;53.200;5.792;2023-08-30T02:22:11;13.20;99.90
53310;DHT22;39197;53.200;5.792;2023-08-30T02:24:37;13.20;99.90
53310;DHT22;39197;53.200;5.792;2023-08-30T02:27:03;13.10;99.90
53310;DHT22;39197;53.200;5.792;2023-08-30T02:29:29;13.10;99.90
53310;DHT22;39197;53.200;5.792;2023-08-30T02:31:54;13.10;99.90
53310;DHT22;39197;53.200;5.792;2023-08-30T02:34:20;13.00;99.90
53310;DHT22;39197;53.200;5.792;2023-08-30T02:36:46;13.00;99.90
53310;DHT22;39197;53.200;5.792;2023-08-30T02:39:14;13.00;99.90
53310;DHT22;39197;53.200;5.792;2023-08-30T02:41:39;12.90;99.90
53310;DHT22;39197;53.200;5.792;2023-08-30T02:44:07;13.10;99.90
53310;DHT22;39197;53.200;5.792;2023-08-30T02:46:33;13.10;99.90
53310;DHT22;39197;53.200;5.792;2023-08-30T02:48:59;13.20;99.90
53310;DHT22;39197;53.200;5.792;2023-08-30T02:51:24;13.10;99.90
53310;DHT22;39197;53.200;5.792;2023-08-30T02:53:50;13.10;99.90
53310;DHT22;39197;53.200;5.792;2023-08-30T02:56:15;13.10;99.90
53310;DHT22;39197;53.200;5.792;2023-08-30T02:58:41;13.10;99.90
53310;DHT22;39197;53.200;5.792;2023-08-30T03:01:07;13.10;99.90
53310;DHT22;39197;53.200;5.792;2023-08-30T03:03:33;13.10;99.90
53310;DHT22;39197;53.200;5.792;2023-08-30T03:05:59;13.10;99.90
53310;DHT22;39197;53.200;5.792;2023-08-30T03:08:24;13.10;99.90
53310;DHT22;39197;53.200;5.792;2023-08-30T03:10:50;13.10;99.90
53310;DHT22;39197;53.200;5.792;2023-08-30T03:13:16;13.20;99.90
53310;DHT22;39197;53.200;5.792;2023-08-30T03:15:41;13.20;99.90
53310;DHT22;39197;53.200;5.792;2023-08-30T03:18:07;13.30;99.90
53310;DHT22;39197;53.200;5.792;2023-08-30T03:20:33;13.30;99.90
53310;DHT22;39197;53.200;5.792;2023-08-30T03:22:58;13.30;99.90
53310;DHT22;39197;53.200;5.792;2023-08-30T03:25:24;13.40;99.90
53310;DHT22;39197;53.200;5.792;2023-08-30T03:27:50;13.40;99.90
53310;DHT22;39197;53.200;5.792;2023-08-30T03:30:16;13.40;99.90
53310;DHT22;39197;53.200;5.792;2023-08-30T03:32:41;13.50;99.90
53310;DHT22;39197;53.200;5.792;2023-08-30T03:35:07;13.50;99.90
53310;DHT22;39197;53.200;5.792;2023-08-30T03:37:33;13.50;99.90
53310;DHT22;39197;53.200;5.792;2023-08-30T03:39:59;13.50;99.90
53310;DHT22;39197;53.200;5.792;2023-08-30T03:42:25;13.50;99.90
53310;DHT22;39197;53.200;5.792;2023-08-30T03:44:50;13.50;99.90
53310;DHT22;39197;53.200;5.792;2023-08-30T03:47:17;13.50;99.90
53310;DHT22;39197;53.200;5.792;2023-08-30T03:49:44;13.60;99.90
53310;DHT22;39197;53.200;5.792;2023-08-30T03:52:09;13.50;99.90
53310;DHT22;39197;53.200;5.792;2023-08-30T03:54:35;13.40;99.90
53310;DHT22;39197;53.200;5.792;2023-08-30T03:57:01;13.40;99.90
53310;DHT22;39197;53.200;5.792;2023-08-30T03:59:26;13.40;99.90
53310;DHT22;39197;53.200;5.792;2023-08-30T04:01:53;13.40;99.90
53310;DHT22;39197;53.200;5.792;2023-08-30T04:04:19;13.30;99.90
53310;DHT22;39197;53.200;5.792;2023-08-30T04:06:45;13.30;99.90
53310;DHT22;39197;53.200;5.792;2023-08-30T04:09:10;13.30;99.90
53310;DHT22;39197;53.200;5.792;2023-08-30T04:11:36;13.30;99.90
53310;DHT22;39197;53.200;5.792;2023-08-30T04:14:02;13.30;99.90
53310;DHT22;39197;53.200;5.792;2023-08-30T04:16:27;13.30;99.90
53310;DHT22;39197;53.200;5.792;2023-08-30T04:18:54;13.50;99.90
53310;DHT22;39197;53.200;5.792;2023-08-30T04:21:20;13.30;99.90
53310;DHT22;39197;53.200;5.792;2023-08-30T04:23:45;13.40;99.90
53310;DHT22;39197;53.200;5.792;2023-08-30T04:26:11;13.70;99.90
53310;DHT22;39197;53.200;5.792;2023-08-30T04:28:36;13.40;99.90
53310;DHT22;39197;53.200;5.792;2023-08-30T04:31:02;13.40;99.90
53310;DHT22;39197;53.200;5.792;2023-08-30T04:33:28;13.40;99.90
53310;DHT22;39197;53.200;5.792;2023-08-30T04:35:54;13.30;99.90
53310;DHT22;39197;53.200;5.792;2023-08-30T04:38:21;13.40;99.90
53310;DHT22;39197;53.200;5.792;2023-08-30T04:40:47;13.50;99.90
53310;DHT22;39197;53.200;5.792;2023-08-30T04:43:14;13.50;99.90
53310;DHT22;39197;53.200;5.792;2023-08-30T04:45:40;13.50;99.90
53310;DHT22;39197;53.200;5.792;2023-08-30T04:48:06;13.40;99.90
53310;DHT22;39197;53.200;5.792;2023-08-30T04:50:32;13.40;99.90
53310;DHT22;39197;53.200;5.792;2023-08-30T04:52:57;13.50;99.90
53310;DHT22;39197;53.200;5.792;2023-08-30T04:55:24;13.50;99.90
53310;DHT22;39197;53.200;5.792;2023-08-30T04:57:50;13.50;99.90
53310;DHT22;39197;53.200;5.792;2023-08-30T05:00:17;13.50;99.90
53310;DHT22;39197;53.200;5.792;2023-08-30T05:02:43;13.50;99.90
53310;DHT22;39197;53.200;5.792;2023-08-30T05:05:12;13.50;99.90
53310;DHT22;39197;53.200;5.792;2023-08-30T05:07:37;13.50;99.90
53310;DHT22;39197;53.200;5.792;2023-08-30T05:10:04;13.60;99.90
53310;DHT22;39197;53.200;5.792;2023-08-30T05:12:30;13.40;99.90
53310;DHT22;39197;53.200;5.792;2023-08-30T05:14:55;13.40;99.90
53310;DHT22;39197;53.200;5.792;2023-08-30T05:17:21;13.30;99.90
53310;DHT22;39197;53.200;5.792;2023-08-30T05:19:47;13.40;99.90
53310;DHT22;39197;53.200;5.792;2023-08-30T05:22:12;13.40;99.90
53310;DHT22;39197;53.200;5.792;2023-08-30T05:24:38;13.30;99.90
53310;DHT22;39197;53.200;5.792;2023-08-30T05:27:04;13.40;99.90
53310;DHT22;39197;53.200;5.792;2023-08-30T05:29:30;13.40;99.90
53310;DHT22;39197;53.200;5.792;2023-08-30T05:31:56;13.60;99.90
53310;DHT22;39197;53.200;5.792;2023-08-30T05:34:21;13.50;99.90
53310;DHT22;39197;53.200;5.792;2023-08-30T05:36:49;13.50;99.90
53310;DHT22;39197;53.200;5.792;2023-08-30T05:39:14;13.50;99.90
53310;DHT22;39197;53.200;5.792;2023-08-30T05:41:40;13.50;99.90
53310;DHT22;39197;53.200;5.792;2023-08-30T05:44:06;13.50;99.90
53310;DHT22;39197;53.200;5.792;2023-08-30T05:46:32;13.50;99.90
53310;DHT22;39197;53.200;5.792;2023-08-30T05:48:58;13.60;99.90
53310;DHT22;39197;53.200;5.792;2023-08-30T05:51:26;13.60;99.90
53310;DHT22;39197;53.200;5.792;2023-08-30T05:53:51;13.60;99.90
53310;DHT22;39197;53.200;5.792;2023-08-30T05:56:17;13.60;99.90
53310;DHT22;39197;53.200;5.792;2023-08-30T05:58:43;13.60;99.90
53310;DHT22;39197;53.200;5.792;2023-08-30T06:01:08;13.60;99.90
53310;DHT22;39197;53.200;5.792;2023-08-30T06:03:34;13.60;99.90
53310;DHT22;39197;53.200;5.792;2023-08-30T06:06:00;13.60;99.90
53310;DHT22;39197;53.200;5.792;2023-08-30T06:08:27;13.60;99.90
53310;DHT22;39197;53.200;5.792;2023-08-30T06:10:52;13.70;99.90
53310;DHT22;39197;53.200;5.792;2023-08-30T06:13:18;13.60;99.90
53310;DHT22;39197;53.200;5.792;2023-08-30T06:15:43;13.60;99.90
53310;DHT22;39197;53.200;5.792;2023-08-30T06:18:11;13.60;99.90
53310;DHT22;39197;53.200;5.792;2023-08-30T06:20:40;13.60;99.90
53310;DHT22;39197;53.200;5.792;2023-08-30T06:23:07;13.70;99.90
53310;DHT22;39197;53.200;5.792;2023-08-30T06:25:32;13.70;99.90
53310;DHT22;39197;53.200;5.792;2023-08-30T06:27:59;13.80;99.90
53310;DHT22;39197;53.200;5.792;2023-08-30T06:30:27;13.90;99.90
53310;DHT22;39197;53.200;5.792;2023-08-30T06:32:54;14.00;99.90
53310;DHT22;39197;53.200;5.792;2023-08-30T06:35:19;14.10;99.90
53310;DHT22;39197;53.200;5.792;2023-08-30T06:37:45;14.20;99.90
53310;DHT22;39197;53.200;5.792;2023-08-30T06:40:11;14.30;99.90
53310;DHT22;39197;53.200;5.792;2023-08-30T06:42:37;14.40;99.90
53310;DHT22;39197;53.200;5.792;2023-08-30T06:45:04;14.60;99.90
53310;DHT22;39197;53.200;5.792;2023-08-30T06:47:30;14.70;99.90
53310;DHT22;39197;53.200;5.792;2023-08-30T06:49:56;14.90;99.90
53310;DHT22;39197;53.200;5.792;2023-08-30T06:52:22;15.00;99.90
53310;DHT22;39197;53.200;5.792;2023-08-30T06:54:47;15.10;99.90
53310;DHT22;39197;53.200;5.792;2023-08-30T06:57:13;15.30;99.90
53310;DHT22;39197;53.200;5.792;2023-08-30T06:59:38;15.40;99.90
53310;DHT22;39197;53.200;5.792;2023-08-30T07:02:04;15.50;99.90
53310;DHT22;39197;53.200;5.792;2023-08-30T07:04:30;15.50;99.90
53310;DHT22;39197;53.200;5.792;2023-08-30T07:06:55;15.60;99.90
53310;DHT22;39197;53.200;5.792;2023-08-30T07:09:21;15.60;99.90
53310;DHT22;39197;53.200;5.792;2023-08-30T07:11:54;15.60;99.90
53310;DHT22;39197;53.200;5.792;2023-08-30T07:14:20;15.60;99.90
53310;DHT22;39197;53.200;5.792;2023-08-30T07:16:46;15.60;99.90
53310;DHT22;39197;53.200;5.792;2023-08-30T07:19:11;15.60;99.90
53310;DHT22;39197;53.200;5.792;2023-08-30T07:21:37;15.50;99.90
53310;DHT22;39197;53.200;5.792;2023-08-30T07:24:05;15.60;99.90
53310;DHT22;39197;53.200;5.792;2023-08-30T07:26:31;15.50;99.90
53310;DHT22;39197;53.200;5.792;2023-08-30T07:28:57;15.40;99.90
53310;DHT22;39197;53.200;5.792;2023-08-30T07:31:23;15.40;99.90
53310;DHT22;39197;53.200;5.792;2023-08-30T07:33:50;15.40;99.90
53310;DHT22;39197;53.200;5.792;2023-08-30T07:36:16;15.50;99.90
53310;DHT22;39197;53.200;5.792;2023-08-30T07:38:41;15.50;99.90
53310;DHT22;39197;53.200;5.792;2023-08-30T07:41:07;15.50;99.90
53310;DHT22;39197;53.200;5.792;2023-08-30T07:43:32;15.60;99.90
53310;DHT22;39197;53.200;5.792;2023-08-30T07:45:59;15.70;99.90
53310;DHT22;39197;53.200;5.792;2023-08-30T07:48:24;15.80;99.90
53310;DHT22;39197;53.200;5.792;2023-08-30T07:50:50;16.00;99.90
53310;DHT22;39197;53.200;5.792;2023-08-30T07:53:16;16.00;99.90
53310;DHT22;39197;53.200;5.792;2023-08-30T07:55:41;16.10;99.90
53310;DHT22;39197;53.200;5.792;2023-08-30T07:58:07;16.10;99.90
53310;DHT22;39197;53.200;5.792;2023-08-30T08:00:35;16.10;99.90
53310;DHT22;39197;53.200;5.792;2023-08-30T08:03:01;16.20;99.90
53310;DHT22;39197;53.200;5.792;2023-08-30T08:05:27;16.20;99.90
53310;DHT22;39197;53.200;5.792;2023-08-30T08:07:53;16.20;99.90
53310;DHT22;39197;53.200;5.792;2023-08-30T08:10:19;16.30;99.90
53310;DHT22;39197;53.200;5.792;2023-08-30T08:12:46;16.30;99.90
53310;DHT22;39197;53.200;5.792;2023-08-30T08:15:11;16.40;99.90
53310;DHT22;39197;53.200;5.792;2023-08-30T08:17:37;16.30;99.90
53310;DHT22;39197;53.200;5.792;2023-08-30T08:20:04;16.40;99.90
53310;DHT22;39197;53.200;5.792;2023-08-30T08:22:30;16.20;99.90
53310;DHT22;39197;53.200;5.792;2023-08-30T08:24:56;16.10;99.90
53310;DHT22;39197;53.200;5.792;2023-08-30T08:27:24;16.30;99.90
53310;DHT22;39197;53.200;5.792;2023-08-30T08:29:50;16.10;99.90
53310;DHT22;39197;53.200;5.792;2023-08-30T08:32:16;16.00;99.90
53310;DHT22;39197;53.200;5.792;2023-08-30T08:34:42;15.90;99.90
53310;DHT22;39197;53.200;5.792;2023-08-30T08:37:07;15.90;99.90
53310;DHT22;39197;53.200;5.792;2023-08-30T08:39:33;15.90;99.90
53310;DHT22;39197;53.200;5.792;2023-08-30T08:41:59;15.60;99.90
53310;DHT22;39197;53.200;5.792;2023-08-30T08:44:27;15.50;99.90
53310;DHT22;39197;53.200;5.792;2023-08-30T08:46:56;15.50;99.90
53310;DHT22;39197;53.200;5.792;2023-08-30T08:49:23;15.30;99.90
53310;DHT22;39197;53.200;5.792;2023-08-30T08:51:53;15.30;99.90
53310;DHT22;39197;53.200;5.792;2023-08-30T08:54:20;15.30;99.90
53310;DHT22;39197;53.200;5.792;2023-08-30T08:56:46;15.20;99.90
53310;DHT22;39197;53.200;5.792;2023-08-30T08:59:12;15.30;99.90
53310;DHT22;39197;53.200;5.792;2023-08-30T09:01:41;15.50;99.90
53310;DHT22;39197;53.200;5.792;2023-08-30T09:04:09;15.30;99.90
53310;DHT22;39197;53.200;5.792;2023-08-30T09:06:35;15.30;99.90
53310;DHT22;39197;53.200;5.792;2023-08-30T09:09:02;15.30;99.90
53310;DHT22;39197;53.200;5.792;2023-08-30T09:11:33;15.30;99.90
53310;DHT22;39197;53.200;5.792;2023-08-30T09:13:59;15.30;99.90
53310;DHT22;39197;53.200;5.792;2023-08-30T09:16:25;15.30;99.90
53310;DHT22;39197;53.200;5.792;2023-08-30T09:18:58;15.40;99.90
53310;DHT22;39197;53.200;5.792;2023-08-30T09:21:24;15.20;99.90
53310;DHT22;39197;53.200;5.792;2023-08-30T09:24:05;15.10;99.90
53310;DHT22;39197;53.200;5.792;2023-08-30T09:26:32;15.20;99.90
53310;DHT22;39197;53.200;5.792;2023-08-30T09:29:17;15.00;99.90
53310;DHT22;39197;53.200;5.792;2023-08-30T09:31:43;15.10;99.90
53310;DHT22;39197;53.200;5.792;2023-08-30T09:34:09;15.10;99.90
53310;DHT22;39197;53.200;5.792;2023-08-30T09:36:37;15.10;99.90
53310;DHT22;39197;53.200;5.792;2023-08-30T09:39:14;15.00;99.90
53310;DHT22;39197;53.200;5.792;2023-08-30T09:41:43;15.00;99.90
53310;DHT22;39197;53.200;5.792;2023-08-30T09:44:20;14.90;99.90
53310;DHT22;39197;53.200;5.792;2023-08-30T09:46:54;14.80;99.90
53310;DHT22;39197;53.200;5.792;2023-08-30T09:49:25;14.80;99.90
53310;DHT22;39197;53.200;5.792;2023-08-30T09:51:53;14.70;99.90
53310;DHT22;39197;53.200;5.792;2023-08-30T09:54:26;14.70;99.90
53310;DHT22;39197;53.200;5.792;2023-08-30T09:56:54;14.90;99.90
53310;DHT22;39197;53.200;5.792;2023-08-30T09:59:23;15.00;99.90
53310;DHT22;39197;53.200;5.792;2023-08-30T10:01:50;15.20;99.90
53310;DHT22;39197;53.200;5.792;2023-08-30T10:04:19;15.20;99.90
53310;DHT22;39197;53.200;5.792;2023-08-30T10:06:45;15.50;99.90
53310;DHT22;39197;53.200;5.792;2023-08-30T10:09:12;15.30;99.90
53310;DHT22;39197;53.200;5.792;2023-08-30T10:11:38;15.20;99.90
53310;DHT22;39197;53.200;5.792;2023-08-30T10:14:05;15.20;99.90
53310;DHT22;39197;53.200;5.792;2023-08-30T10:16:47;15.00;99.90
53310;DHT22;39197;53.200;5.792;2023-08-30T10:19:26;14.90;99.90
53310;DHT22;39197;53.200;5.792;2023-08-30T10:22:03;14.90;99.90
53310;DHT22;39197;53.200;5.792;2023-08-30T10:24:32;14.80;99.90
53310;DHT22;39197;53.200;5.792;2023-08-30T10:27:03;14.70;99.90
53310;DHT22;39197;53.200;5.792;2023-08-30T10:29:31;14.70;99.90
53310;DHT22;39197;53.200;5.792;2023-08-30T10:32:05;14.60;99.90
53310;DHT22;39197;53.200;5.792;2023-08-30T10:34:35;14.70;99.90
53310;DHT22;39197;53.200;5.792;2023-08-30T10:37:02;14.60;99.90
53310;DHT22;39197;53.200;5.792;2023-08-30T10:39:36;14.40;99.90
53310;DHT22;39197;53.200;5.792;2023-08-30T10:42:08;14.60;99.90
53310;DHT22;39197;53.200;5.792;2023-08-30T10:44:34;14.70;99.90
53310;DHT22;39197;53.200;5.792;2023-08-30T10:47:02;14.80;99.90
53310;DHT22;39197;53.200;5.792;2023-08-30T10:49:29;15.00;99.90
53310;DHT22;39197;53.200;5.792;2023-08-30T10:52:04;15.10;99.90
53310;DHT22;39197;53.200;5.792;2023-08-30T10:54:38;15.20;99.90
53310;DHT22;39197;53.200;5.792;2023-08-30T10:57:04;15.20;99.90
53310;DHT22;39197;53.200;5.792;2023-08-30T10:59:31;15.30;99.90
53310;DHT22;39197;53.200;5.792;2023-08-30T11:02:01;15.00;99.90
53310;DHT22;39197;53.200;5.792;2023-08-30T11:04:26;15.20;99.90
53310;DHT22;39197;53.200;5.792;2023-08-30T11:06:52;15.10;99.90
53310;DHT22;39197;53.200;5.792;2023-08-30T11:09:19;15.10;99.90
53310;DHT22;39197;53.200;5.792;2023-08-30T11:11:47;15.20;99.90
53310;DHT22;39197;53.200;5.792;2023-08-30T11:14:13;15.10;99.90
53310;DHT22;39197;53.200;5.792;2023-08-30T11:16:39;15.10;99.90
53310;DHT22;39197;53.200;5.792;2023-08-30T11:19:06;15.10;99.90
53310;DHT22;39197;53.200;5.792;2023-08-30T11:21:34;15.10;99.90
53310;DHT22;39197;53.200;5.792;2023-08-30T11:24:00;15.10;99.90
53310;DHT22;39197;53.200;5.792;2023-08-30T11:26:26;15.10;99.90
53310;DHT22;39197;53.200;5.792;2023-08-30T11:28:52;15.60;99.90
53310;DHT22;39197;53.200;5.792;2023-08-30T11:31:19;15.10;99.90
53310;DHT22;39197;53.200;5.792;2023-08-30T11:33:56;15.10;99.90
53310;DHT22;39197;53.200;5.792;2023-08-30T11:36:25;15.10;99.90
53310;DHT22;39197;53.200;5.792;2023-08-30T11:38:54;15.00;99.90
53310;DHT22;39197;53.200;5.792;2023-08-30T11:41:20;14.90;99.90
53310;DHT22;39197;53.200;5.792;2023-08-30T11:43:50;14.90;99.90
53310;DHT22;39197;53.200;5.792;2023-08-30T11:46:17;14.90;99.90
53310;DHT22;39197;53.200;5.792;2023-08-30T11:48:45;15.00;99.90
53310;DHT22;39197;53.200;5.792;2023-08-30T11:51:14;14.90;99.90
53310;DHT22;39197;53.200;5.792;2023-08-30T11:53:40;15.30;99.90
53310;DHT22;39197;53.200;5.792;2023-08-30T11:56:07;15.00;99.90
53310;DHT22;39197;53.200;5.792;2023-08-30T11:58:36;15.20;99.90
53310;DHT22;39197;53.200;5.792;2023-08-30T12:01:03;15.10;99.90
53310;DHT22;39197;53.200;5.792;2023-08-30T12:03:30;15.20;99.90
53310;DHT22;39197;53.200;5.792;2023-08-30T12:05:56;15.10;99.90
53310;DHT22;39197;53.200;5.792;2023-08-30T12:08:30;15.10;99.90
53310;DHT22;39197;53.200;5.792;2023-08-30T12:10:57;15.10;99.90
53310;DHT22;39197;53.200;5.792;2023-08-30T12:13:26;15.10;99.90
53310;DHT22;39197;53.200;5.792;2023-08-30T12:15:57;15.10;99.90
53310;DHT22;39197;53.200;5.792;2023-08-30T12:18:24;15.30;99.90
53310;DHT22;39197;53.200;5.792;2023-08-30T12:20:54;15.40;99.90
53310;DHT22;39197;53.200;5.792;2023-08-30T12:23:24;15.50;99.90
53310;DHT22;39197;53.200;5.792;2023-08-30T12:26:00;15.50;99.90
53310;DHT22;39197;53.200;5.792;2023-08-30T12:28:26;15.60;99.90
53310;DHT22;39197;53.200;5.792;2023-08-30T12:30:53;15.60;99.90
53310;DHT22;39197;53.200;5.792;2023-08-30T12:33:18;15.60;99.90
53310;DHT22;39197;53.200;5.792;2023-08-30T12:35:44;15.70;99.90
53310;DHT22;39197;53.200;5.792;2023-08-30T12:38:10;15.70;99.90
53310;DHT22;39197;53.200;5.792;2023-08-30T12:40:37;15.70;99.90
53310;DHT22;39197;53.200;5.792;2023-08-30T12:43:04;15.80;99.90
53310;DHT22;39197;53.200;5.792;2023-08-30T12:45:29;15.80;99.90
53310;DHT22;39197;53.200;5.792;2023-08-30T12:47:55;15.90;99.90
53310;DHT22;39197;53.200;5.792;2023-08-30T12:50:24;15.90;99.90
53310;DHT22;39197;53.200;5.792;2023-08-30T12:52:50;15.90;99.90
53310;DHT22;39197;53.200;5.792;2023-08-30T12:55:16;15.90;99.90
53310;DHT22;39197;53.200;5.792;2023-08-30T12:57:44;15.90;99.90
53310;DHT22;39197;53.200;5.792;2023-08-30T13:00:12;16.00;99.90
53310;DHT22;39197;53.200;5.792;2023-08-30T13:02:38;16.10;99.90
53310;DHT22;39197;53.200;5.792;2023-08-30T13:05:05;16.30;99.90
53310;DHT22;39197;53.200;5.792;2023-08-30T13:07:30;16.50;99.90
53310;DHT22;39197;53.200;5.792;2023-08-30T13:09:56;16.50;99.90
53310;DHT22;39197;53.200;5.792;2023-08-30T13:12:22;16.60;99.90
53310;DHT22;39197;53.200;5.792;2023-08-30T13:14:48;16.90;99.90
53310;DHT22;39197;53.200;5.792;2023-08-30T13:17:14;17.30;99.90
53310;DHT22;39197;53.200;5.792;2023-08-30T13:19:45;17.60;99.90
53310;DHT22;39197;53.200;5.792;2023-08-30T13:22:11;17.70;99.90
53310;DHT22;39197;53.200;5.792;2023-08-30T13:24:36;18.00;99.90
53310;DHT22;39197;53.200;5.792;2023-08-30T13:27:03;18.10;99.90
53310;DHT22;39197;53.200;5.792;2023-08-30T13:29:29;18.20;99.90
53310;DHT22;39197;53.200;5.792;2023-08-30T13:31:55;18.30;99.90
53310;DHT22;39197;53.200;5.792;2023-08-30T13:34:21;18.00;99.90
53310;DHT22;39197;53.200;5.792;2023-08-30T13:36:47;17.90;99.90
53310;DHT22;39197;53.200;5.792;2023-08-30T13:39:13;17.90;99.90
53310;DHT22;39197;53.200;5.792;2023-08-30T13:41:40;17.80;99.90
53310;DHT22;39197;53.200;5.792;2023-08-30T13:44:06;17.80;99.90
53310;DHT22;39197;53.200;5.792;2023-08-30T13:46:32;18.10;99.90
53310;DHT22;39197;53.200;5.792;2023-08-30T13:48:58;18.30;99.90
53310;DHT22;39197;53.200;5.792;2023-08-30T13:51:25;18.80;99.90
53310;DHT22;39197;53.200;5.792;2023-08-30T13:53:52;19.00;99.90
53310;DHT22;39197;53.200;5.792;2023-08-30T13:56:21;19.50;99.90
53310;DHT22;39197;53.200;5.792;2023-08-30T13:58:47;19.50;99.90
53310;DHT22;39197;53.200;5.792;2023-08-30T14:01:13;19.10;99.90
53310;DHT22;39197;53.200;5.792;2023-08-30T14:03:40;19.00;99.90
53310;DHT22;39197;53.200;5.792;2023-08-30T14:06:05;19.30;99.90
53310;DHT22;39197;53.200;5.792;2023-08-30T14:08:32;19.50;99.90
53310;DHT22;39197;53.200;5.792;2023-08-30T14:10:57;19.20;99.90
53310;DHT22;39197;53.200;5.792;2023-08-30T14:13:23;19.00;99.90
53310;DHT22;39197;53.200;5.792;2023-08-30T14:15:50;18.70;99.90
53310;DHT22;39197;53.200;5.792;2023-08-30T14:18:16;18.60;99.90
53310;DHT22;39197;53.200;5.792;2023-08-30T14:20:43;18.30;99.90
53310;DHT22;39197;53.200;5.792;2023-08-30T14:23:09;18.40;99.90
53310;DHT22;39197;53.200;5.792;2023-08-30T14:25:35;18.20;99.90
53310;DHT22;39197;53.200;5.792;2023-08-30T14:28:02;18.40;99.90
53310;DHT22;39197;53.200;5.792;2023-08-30T14:30:29;18.40;99.90
53310;DHT22;39197;53.200;5.792;2023-08-30T14:32:55;18.60;99.90
53310;DHT22;39197;53.200;5.792;2023-08-30T14:35:21;18.80;99.90
53310;DHT22;39197;53.200;5.792;2023-08-30T14:37:50;18.70;99.90
53310;DHT22;39197;53.200;5.792;2023-08-30T14:40:16;18.70;99.90
53310;DHT22;39197;53.200;5.792;2023-08-30T14:42:42;18.50;99.90
53310;DHT22;39197;53.200;5.792;2023-08-30T14:45:08;18.30;99.90
53310;DHT22;39197;53.200;5.792;2023-08-30T14:47:34;18.30;99.90
53310;DHT22;39197;53.200;5.792;2023-08-30T14:50:00;18.50;99.90
53310;DHT22;39197;53.200;5.792;2023-08-30T14:52:30;18.40;99.90
53310;DHT22;39197;53.200;5.792;2023-08-30T14:54:56;18.30;99.90
53310;DHT22;39197;53.200;5.792;2023-08-30T14:57:23;18.40;99.90
53310;DHT22;39197;53.200;5.792;2023-08-30T14:59:50;18.50;99.90
53310;DHT22;39197;53.200;5.792;2023-08-30T15:02:16;18.60;99.90
53310;DHT22;39197;53.200;5.792;2023-08-30T15:04:42;18.50;99.90
53310;DHT22;39197;53.200;5.792;2023-08-30T15:07:07;18.90;99.90
53310;DHT22;39197;53.200;5.792;2023-08-30T15:09:34;19.10;99.90
53310;DHT22;39197;53.200;5.792;2023-08-30T15:12:00;19.50;99.90
53310;DHT22;39197;53.200;5.792;2023-08-30T15:14:26;19.80;99.90
53310;DHT22;39197;53.200;5.792;2023-08-30T15:16:51;19.80;99.90
53310;DHT22;39197;53.200;5.792;2023-08-30T15:19:18;19.90;99.90
53310;DHT22;39197;53.200;5.792;2023-08-30T15:21:45;20.10;99.90
53310;DHT22;39197;53.200;5.792;2023-08-30T15:24:11;20.30;99.90
53310;DHT22;39197;53.200;5.792;2023-08-30T15:26:38;20.60;99.90
53310;DHT22;39197;53.200;5.792;2023-08-30T15:29:04;20.40;99.90
53310;DHT22;39197;53.200;5.792;2023-08-30T15:31:30;20.40;99.90
53310;DHT22;39197;53.200;5.792;2023-08-30T15:33:56;20.00;99.90
53310;DHT22;39197;53.200;5.792;2023-08-30T15:36:22;20.20;99.90
53310;DHT22;39197;53.200;5.792;2023-08-30T15:38:48;20.00;99.90